createdAt,value
2022-11-04T00:01:52.090Z,52.91
2022-11-04T00:04:35.010Z,52.79
2022-11-04T00:07:36.766Z,52.64
2022-11-04T00:10:40.336Z,52.86
2022-11-04T00:13:22.206Z,52.89
2022-11-04T00:16:23.099Z,52.85
2022-11-04T00:19:06.109Z,52.84
2022-11-04T00:22:06.695Z,52.70
2022-11-04T00:25:08.402Z,52.48
2022-11-04T00:28:08.846Z,52.44
2022-11-04T00:30:56.555Z,52.34
2022-11-04T00:33:38.401Z,52.40
2022-11-04T00:36:22.197Z,52.29
2022-11-04T00:39:05.148Z,52.40
2022-11-04T00:41:49.362Z,52.39
2022-11-04T00:44:32.241Z,52.60
2022-11-04T00:47:15.101Z,52.56
2022-11-04T00:49:57.965Z,52.42
2022-11-04T00:52:40.824Z,52.47
2022-11-04T00:55:23.725Z,52.54
2022-11-04T00:58:07.917Z,52.45
2022-11-04T01:00:50.897Z,52.47
2022-11-04T01:03:33.814Z,52.43
2022-11-04T01:06:17.073Z,52.38
2022-11-04T01:09:01.984Z,52.45
2022-11-04T01:11:44.959Z,52.36
2022-11-04T01:14:29.270Z,52.53
2022-11-04T01:17:12.098Z,52.53
2022-11-04T01:19:55.034Z,52.24
2022-11-04T01:22:37.835Z,52.01
2022-11-04T01:25:20.819Z,51.61
2022-11-04T01:28:03.724Z,51.65
2022-11-04T01:30:47.934Z,51.44
2022-11-04T01:33:30.772Z,51.38
2022-11-04T01:36:13.647Z,51.61
2022-11-04T01:38:57.628Z,51.83
2022-11-04T01:41:40.648Z,52.42
2022-11-04T01:44:52.845Z,53.13
2022-11-04T01:47:42.165Z,53.17
2022-11-04T01:50:28.966Z,53.58
2022-11-04T01:53:15.980Z,54.03
2022-11-04T01:56:01.376Z,54.43
2022-11-04T01:58:48.955Z,55.04
2022-11-04T02:01:32.043Z,55.56
2022-11-04T02:04:30.058Z,55.62
2022-11-04T02:07:13.556Z,56.21
2022-11-04T02:09:56.744Z,56.60
2022-11-04T02:12:51.476Z,56.86
2022-11-04T02:15:43.112Z,57.83
2022-11-04T02:18:39.629Z,58.75
2022-11-04T02:21:48.191Z,58.85
2022-11-04T02:24:58.861Z,59.14
2022-11-04T02:27:54.866Z,59.12
2022-11-04T02:30:47.212Z,59.11
2022-11-04T02:33:38.432Z,59.80
2022-11-04T02:36:29.717Z,59.95
2022-11-04T02:39:24.777Z,60.35
2022-11-04T02:42:12.690Z,62.36
2022-11-04T02:45:04.009Z,61.13
2022-11-04T02:47:52.991Z,61.15
2022-11-04T02:50:44.325Z,61.49
2022-11-04T02:53:32.332Z,62.21
2022-11-04T02:56:17.704Z,62.39
2022-11-04T02:59:05.449Z,62.89
2022-11-04T03:01:50.701Z,63.45
2022-11-04T03:04:38.790Z,64.32
2022-11-04T03:07:26.786Z,63.89
2022-11-04T03:10:14.196Z,64.24
2022-11-04T03:13:07.751Z,64.56
2022-11-04T03:15:55.770Z,64.68
2022-11-04T03:18:49.396Z,64.92
2022-11-04T03:21:39.939Z,65.03
2022-11-04T03:24:23.213Z,65.24
2022-11-04T03:27:12.118Z,65.28
2022-11-04T03:30:02.067Z,65.72
2022-11-04T03:32:50.869Z,65.97
2022-11-04T03:35:34.531Z,66.07
2022-11-04T03:38:18.833Z,66.30
2022-11-04T03:41:03.625Z,66.66
2022-11-04T03:43:46.334Z,68.14
2022-11-04T03:46:29.699Z,66.99
2022-11-04T03:49:13.385Z,67.15
2022-11-04T03:51:56.294Z,67.27
2022-11-04T03:54:41.059Z,67.14
2022-11-04T03:57:30.832Z,68.61
2022-11-04T04:00:17.228Z,67.34
2022-11-04T04:03:07.264Z,67.69
2022-11-04T04:05:55.064Z,67.87
2022-11-04T04:08:42.468Z,68.01
2022-11-04T04:11:37.529Z,68.18
2022-11-04T04:14:37.953Z,69.83
2022-11-04T04:17:29.680Z,68.58
2022-11-04T04:20:17.118Z,68.71
2022-11-04T04:23:04.278Z,68.61
2022-11-04T04:26:05.193Z,68.78
2022-11-04T04:28:51.106Z,69.11
2022-11-04T04:31:52.631Z,69.08
2022-11-04T04:34:35.829Z,69.33
2022-11-04T04:37:22.285Z,69.58
2022-11-04T04:40:25.293Z,69.34
2022-11-04T04:43:33.116Z,70.11
2022-11-04T04:46:17.365Z,69.64
2022-11-04T04:49:05.773Z,69.83
2022-11-04T04:51:49.238Z,69.77
2022-11-04T04:54:32.359Z,69.65
2022-11-04T04:57:15.444Z,69.52
2022-11-04T04:59:58.325Z,69.72
2022-11-04T05:02:42.733Z,69.75
2022-11-04T05:05:25.746Z,69.73
2022-11-04T05:08:09.560Z,69.87
2022-11-04T05:10:52.618Z,70.20
2022-11-04T05:13:35.496Z,70.09
2022-11-04T05:16:18.373Z,70.08
2022-11-04T05:19:02.655Z,70.43
2022-11-04T05:21:45.572Z,70.21
2022-11-04T05:24:28.649Z,70.17
2022-11-04T05:27:11.526Z,70.50
2022-11-04T05:29:54.381Z,70.52
2022-11-04T05:32:37.284Z,70.88
2022-11-04T05:35:21.526Z,71.26
2022-11-04T05:38:04.452Z,70.64
2022-11-04T05:40:47.300Z,70.91
2022-11-04T05:43:30.192Z,70.83
2022-11-04T05:46:13.039Z,71.17
2022-11-04T05:48:56.110Z,71.45
2022-11-04T05:51:40.313Z,71.20
2022-11-04T05:54:23.268Z,71.12
2022-11-04T05:57:06.500Z,71.23
2022-11-04T05:59:49.368Z,71.65
2022-11-04T06:02:32.247Z,71.55
2022-11-04T06:05:15.250Z,71.53
2022-11-04T06:07:59.440Z,71.46
2022-11-04T06:10:44.269Z,71.55
2022-11-04T06:13:27.109Z,71.75
2022-11-04T06:16:10.004Z,71.71
2022-11-04T06:18:53.279Z,71.95
2022-11-04T06:21:36.852Z,71.81
2022-11-04T06:24:21.092Z,71.94
2022-11-04T06:27:04.092Z,71.94
2022-11-04T06:29:47.279Z,71.81
2022-11-04T06:32:30.351Z,72.17
2022-11-04T06:35:13.386Z,72.29
2022-11-04T06:37:56.437Z,72.11
2022-11-04T06:40:40.684Z,72.14
2022-11-04T06:43:23.530Z,72.28
2022-11-04T06:46:06.694Z,72.46
2022-11-04T06:48:49.529Z,72.36
2022-11-04T06:51:32.657Z,72.45
2022-11-04T06:54:16.269Z,72.48
2022-11-04T06:57:00.489Z,72.65
2022-11-04T06:59:43.324Z,72.54
2022-11-04T07:02:26.421Z,72.63
2022-11-04T07:05:10.051Z,72.54
2022-11-04T07:07:53.047Z,72.44
2022-11-04T07:10:35.881Z,72.59
2022-11-04T07:13:20.116Z,72.70
2022-11-04T07:16:05.949Z,72.63
2022-11-04T07:18:49.344Z,72.55
2022-11-04T07:21:32.608Z,72.39
2022-11-04T07:24:15.480Z,72.59
2022-11-04T07:26:58.436Z,72.67
2022-11-04T07:29:42.647Z,72.60
2022-11-04T07:32:25.536Z,72.36
2022-11-04T07:35:09.178Z,72.47
2022-11-04T07:37:52.070Z,72.34
2022-11-04T07:40:35.471Z,72.14
2022-11-04T07:43:18.501Z,72.25
2022-11-04T07:46:06.097Z,72.56
2022-11-04T07:48:49.186Z,72.30
2022-11-04T07:51:33.275Z,72.58
2022-11-04T07:54:16.150Z,72.31
2022-11-04T07:56:59.260Z,72.31
2022-11-04T07:59:42.162Z,72.49
2022-11-04T08:02:29.902Z,72.57
2022-11-04T08:05:17.686Z,72.55
2022-11-04T08:08:00.599Z,72.48
2022-11-04T08:10:43.501Z,72.24
2022-11-04T08:13:29.144Z,72.56
2022-11-04T08:16:14.258Z,72.53
2022-11-04T08:19:01.764Z,72.51
2022-11-04T08:21:45.053Z,72.44
2022-11-04T08:24:27.899Z,72.15
2022-11-04T08:27:10.785Z,71.92
2022-11-04T08:29:53.695Z,72.00
2022-11-04T08:32:36.629Z,71.99
2022-11-04T08:35:20.833Z,72.07
2022-11-04T08:38:03.738Z,71.93
2022-11-04T08:40:46.816Z,72.01
2022-11-04T08:43:29.750Z,72.44
2022-11-04T08:46:13.068Z,72.41
2022-11-04T08:48:55.926Z,72.42
2022-11-04T08:51:41.985Z,72.31
2022-11-04T08:54:25.021Z,72.33
2022-11-04T08:57:07.839Z,72.32
2022-11-04T08:59:50.705Z,72.33
2022-11-04T09:02:33.643Z,72.50
2022-11-04T09:05:16.549Z,72.63
2022-11-04T09:08:01.922Z,72.65
2022-11-04T09:10:45.495Z,72.70
2022-11-04T09:13:28.400Z,72.87
2022-11-04T09:16:13.293Z,72.87
2022-11-04T09:18:57.910Z,72.79
2022-11-04T09:21:40.784Z,72.68
2022-11-04T09:24:25.117Z,72.73
2022-11-04T09:27:08.003Z,72.99
2022-11-04T09:29:51.021Z,72.81
2022-11-04T09:32:33.837Z,72.93
2022-11-04T09:35:17.845Z,73.09
2022-11-04T09:38:01.768Z,72.82
2022-11-04T09:40:48.226Z,72.63
2022-11-04T09:43:41.563Z,72.76
2022-11-04T09:46:25.479Z,72.15
2022-11-04T09:49:11.586Z,72.06
2022-11-04T09:51:57.771Z,72.03
2022-11-04T09:54:47.429Z,72.32
2022-11-04T09:57:33.146Z,72.28
2022-11-04T10:00:17.317Z,72.23
2022-11-04T10:03:13.932Z,72.46
2022-11-04T10:06:09.315Z,71.92
2022-11-04T10:09:09.332Z,71.64
2022-11-04T10:12:03.313Z,71.95
2022-11-04T10:15:14.429Z,71.79
2022-11-04T10:18:13.357Z,71.82
2022-11-04T10:21:06.644Z,71.81
2022-11-04T10:24:00.283Z,72.14
2022-11-04T10:26:46.849Z,72.04
2022-11-04T10:29:36.985Z,72.02
2022-11-04T10:32:26.215Z,72.04
2022-11-04T10:35:23.065Z,71.68
2022-11-04T10:38:20.417Z,71.97
2022-11-04T10:41:07.191Z,71.14
2022-11-04T10:43:51.827Z,71.18
2022-11-04T10:46:48.005Z,70.98
2022-11-04T10:50:06.760Z,70.82
2022-11-04T10:52:47.503Z,70.99
2022-11-04T10:55:39.184Z,70.96
2022-11-04T10:58:25.773Z,70.84
2022-11-04T11:01:26.434Z,70.92
2022-11-04T11:04:10.040Z,70.99
2022-11-04T11:06:55.449Z,70.22
2022-11-04T11:09:53.507Z,70.77
2022-11-04T11:12:51.440Z,70.74
2022-11-04T11:15:36.657Z,70.71
2022-11-04T11:18:22.374Z,71.17
2022-11-04T11:21:09.444Z,70.82
2022-11-04T11:23:56.194Z,70.86
2022-11-04T11:26:39.118Z,70.98
2022-11-04T11:29:25.802Z,71.03
2022-11-04T11:32:28.534Z,71.49
2022-11-04T11:35:17.898Z,71.37
2022-11-04T11:38:04.070Z,71.55
2022-11-04T11:41:18.406Z,71.86
2022-11-04T11:43:56.191Z,71.55
2022-11-04T11:46:42.641Z,71.25
2022-11-04T11:49:30.378Z,71.40
2022-11-04T11:52:33.394Z,71.52
2022-11-04T11:55:19.826Z,71.72
2022-11-04T12:01:25.324Z,71.86
2022-11-04T12:10:49.831Z,71.71
2022-11-04T12:13:40.695Z,71.63
2022-11-04T12:16:34.956Z,71.68
2022-11-04T12:19:32.581Z,71.75
2022-11-04T12:22:27.224Z,71.88
2022-11-04T12:25:22.939Z,72.01
2022-11-04T12:28:18.809Z,72.16
2022-11-04T12:31:16.718Z,72.29
2022-11-04T12:34:10.179Z,72.33
2022-11-04T12:37:07.348Z,72.27
2022-11-04T12:40:06.018Z,72.16
2022-11-04T12:43:09.593Z,72.13
2022-11-04T12:46:12.197Z,72.25
2022-11-04T12:49:13.899Z,72.58
2022-11-04T12:52:07.584Z,72.29
2022-11-04T12:55:12.583Z,72.41
2022-11-04T12:58:02.742Z,72.42
2022-11-04T13:00:49.850Z,72.14
2022-11-04T13:03:46.993Z,72.21
2022-11-04T13:06:35.557Z,72.23
2022-11-04T13:09:26.675Z,72.28
2022-11-04T13:12:14.636Z,72.38
2022-11-04T13:15:02.470Z,72.07
2022-11-04T13:17:47.620Z,71.94
2022-11-04T13:20:37.326Z,71.70
2022-11-04T13:23:26.047Z,71.75
2022-11-04T13:26:14.586Z,71.86
2022-11-04T13:29:07.435Z,72.00
2022-11-04T13:31:58.584Z,72.22
2022-11-04T13:34:52.175Z,72.06
2022-11-04T13:37:43.129Z,72.10
2022-11-04T13:40:29.742Z,72.47
2022-11-04T13:43:39.773Z,72.77
2022-11-04T13:46:30.360Z,72.55
2022-11-04T13:49:30.325Z,72.74
2022-11-04T13:52:15.249Z,72.74
2022-11-04T13:55:02.717Z,72.59
2022-11-04T13:57:53.465Z,72.53
2022-11-04T14:00:39.784Z,71.97
2022-11-04T14:03:52.805Z,72.75
2022-11-04T14:06:54.423Z,72.57
2022-11-04T14:10:03.532Z,72.09
2022-11-04T14:12:46.422Z,72.24
2022-11-04T14:16:00.211Z,72.24
2022-11-04T14:18:44.808Z,72.24
2022-11-04T14:21:29.413Z,72.31
2022-11-04T14:24:16.452Z,72.25
2022-11-04T14:27:01.071Z,72.48
2022-11-04T14:29:50.804Z,72.62
2022-11-04T14:32:38.797Z,72.64
2022-11-04T14:35:21.694Z,72.56
2022-11-04T14:38:20.054Z,72.67
2022-11-04T14:41:22.733Z,72.81
2022-11-04T14:44:15.551Z,72.88
2022-11-04T14:47:02.094Z,73.16
2022-11-04T14:49:47.763Z,72.91
2022-11-04T14:52:34.601Z,72.99
2022-11-04T14:55:20.405Z,73.10
2022-11-04T14:58:23.905Z,73.19
2022-11-04T15:01:12.048Z,73.24
2022-11-04T15:04:11.673Z,73.52
2022-11-04T15:06:57.014Z,73.21
2022-11-04T15:09:47.962Z,73.36
2022-11-04T15:12:48.246Z,73.11
2022-11-04T15:15:37.679Z,73.24
2022-11-04T15:18:28.192Z,73.83
2022-11-04T15:21:11.845Z,73.58
2022-11-04T15:23:56.550Z,73.49
2022-11-04T15:26:39.366Z,74.32
2022-11-04T15:29:25.003Z,73.81
2022-11-04T15:32:08.170Z,74.10
2022-11-04T15:34:53.852Z,73.75
2022-11-04T15:37:38.395Z,73.81
2022-11-04T15:40:22.561Z,73.98
2022-11-04T15:43:06.209Z,73.71
2022-11-04T15:45:55.790Z,73.77
2022-11-04T15:48:39.884Z,73.83
2022-11-04T15:51:25.708Z,74.20
2022-11-04T15:54:21.522Z,74.34
2022-11-04T15:57:13.213Z,74.83
2022-11-04T16:00:01.372Z,74.65
2022-11-04T16:02:48.001Z,74.84
2022-11-04T16:05:33.569Z,74.88
2022-11-04T16:08:21.813Z,74.86
2022-11-04T16:11:14.448Z,74.77
2022-11-04T16:14:29.905Z,74.78
2022-11-04T16:17:12.963Z,74.74
2022-11-04T16:19:59.026Z,74.77
2022-11-04T16:22:44.237Z,74.96
2022-11-04T16:25:33.877Z,74.69
2022-11-04T16:28:21.261Z,74.70
2022-11-04T16:31:08.259Z,75.01
2022-11-04T16:33:51.727Z,74.99
2022-11-04T16:36:36.079Z,74.97
2022-11-04T16:39:19.366Z,74.86
2022-11-04T16:42:03.714Z,74.72
2022-11-04T16:44:51.174Z,74.67
2022-11-04T16:47:38.101Z,74.71
2022-11-04T16:50:21.565Z,74.67
2022-11-04T16:53:04.470Z,74.99
2022-11-04T16:55:47.680Z,74.95
2022-11-04T16:58:31.978Z,74.70
2022-11-04T17:01:16.294Z,74.68
2022-11-04T17:03:59.281Z,74.87
2022-11-04T17:06:42.202Z,74.67
2022-11-04T17:09:25.161Z,74.49
2022-11-04T17:12:08.422Z,74.74
2022-11-04T17:14:52.676Z,74.75
2022-11-04T17:17:35.601Z,74.83
2022-11-04T17:20:20.193Z,74.85
2022-11-04T17:23:02.904Z,74.84
2022-11-04T17:25:46.571Z,74.41
2022-11-04T17:28:31.501Z,74.58
2022-11-04T17:31:19.769Z,74.65
2022-11-04T17:34:02.913Z,74.92
2022-11-04T17:36:45.825Z,74.69
2022-11-04T17:39:28.836Z,74.38
2022-11-04T17:42:29.024Z,74.45
2022-11-04T17:45:11.928Z,74.48
2022-11-04T17:47:56.197Z,74.92
2022-11-04T17:50:42.251Z,75.31
2022-11-04T17:53:25.226Z,74.92
2022-11-04T17:56:15.148Z,75.06
2022-11-04T17:59:00.275Z,75.28
2022-11-04T18:01:45.007Z,75.11
2022-11-04T18:04:29.663Z,74.92
2022-11-04T18:07:12.974Z,74.83
2022-11-04T18:09:56.422Z,75.23
2022-11-04T18:12:41.495Z,74.96
2022-11-04T18:15:24.612Z,75.14
2022-11-04T18:18:07.524Z,75.26
2022-11-04T18:20:52.365Z,75.55
2022-11-04T18:23:35.511Z,75.43
2022-11-04T18:26:18.972Z,75.34
2022-11-04T18:29:02.237Z,74.90
2022-11-04T18:31:49.203Z,75.11
2022-11-04T18:34:32.449Z,74.88
2022-11-04T18:37:17.411Z,75.42
2022-11-04T18:40:00.300Z,75.30
2022-11-04T18:42:43.214Z,75.68
2022-11-04T18:45:26.067Z,75.45
2022-11-04T18:48:09.294Z,75.70
2022-11-04T18:50:52.589Z,76.08
2022-11-04T18:53:37.150Z,75.90
2022-11-04T18:56:22.384Z,75.84
2022-11-04T18:59:05.677Z,75.59
2022-11-04T19:01:51.237Z,75.33
2022-11-04T19:04:34.242Z,75.74
2022-11-04T19:07:17.801Z,75.88
2022-11-04T19:10:02.006Z,76.24
2022-11-04T19:13:04.812Z,75.23
2022-11-04T19:15:49.077Z,74.89
2022-11-04T19:18:31.990Z,74.89
2022-11-04T19:21:14.858Z,74.63
2022-11-04T19:24:00.057Z,74.91
2022-11-04T19:26:44.356Z,74.98
2022-11-04T19:29:28.862Z,74.61
2022-11-04T19:32:14.278Z,74.68
2022-11-04T19:34:57.535Z,74.70
2022-11-04T19:37:40.430Z,74.63
2022-11-04T19:40:23.353Z,74.75
2022-11-04T19:43:09.182Z,74.88
2022-11-04T19:45:52.075Z,74.84
2022-11-04T19:48:35.734Z,75.16
2022-11-04T19:51:18.621Z,75.57
2022-11-04T19:54:02.160Z,75.83
2022-11-04T19:56:45.076Z,75.93
2022-11-04T19:59:29.454Z,76.18
2022-11-04T20:02:14.654Z,76.10
2022-11-04T20:04:57.696Z,75.78
2022-11-04T20:07:40.591Z,75.98
2022-11-04T20:10:24.407Z,76.04
2022-11-04T20:13:25.264Z,75.78
2022-11-04T20:16:16.846Z,75.19
2022-11-04T20:19:02.715Z,75.42
2022-11-04T20:21:45.762Z,74.89
2022-11-04T20:24:28.864Z,75.00
2022-11-04T20:27:15.102Z,74.94
2022-11-04T20:29:58.010Z,75.28
2022-11-04T20:32:42.359Z,75.21
2022-11-04T20:35:25.490Z,75.09
2022-11-04T20:38:08.800Z,74.91
2022-11-04T20:40:52.004Z,75.35
2022-11-04T20:43:35.657Z,75.22
2022-11-04T20:46:21.873Z,75.18
2022-11-04T20:49:06.570Z,75.21
2022-11-04T20:51:54.868Z,75.45
2022-11-04T20:54:38.568Z,75.31
2022-11-04T20:57:21.548Z,75.50
2022-11-04T21:00:08.208Z,75.20
2022-11-04T21:02:51.175Z,75.25
2022-11-04T21:05:36.817Z,75.14
2022-11-04T21:08:19.896Z,74.95
2022-11-04T21:11:04.137Z,75.51
2022-11-04T21:13:47.154Z,75.67
2022-11-04T21:16:30.469Z,75.28
2022-11-04T21:19:14.546Z,75.11
2022-11-04T21:21:58.892Z,74.93
2022-11-04T21:24:42.066Z,75.08
2022-11-04T21:27:24.946Z,75.57
2022-11-04T21:30:12.906Z,75.49
2022-11-04T21:32:55.832Z,75.32
2022-11-04T21:35:39.937Z,75.29
2022-11-04T21:38:24.462Z,75.07
2022-11-04T21:41:09.843Z,75.11
2022-11-04T21:43:55.728Z,75.11
2022-11-04T21:46:38.668Z,75.80
2022-11-04T21:49:21.583Z,75.82
2022-11-04T21:52:05.775Z,75.96
2022-11-04T21:54:50.036Z,75.63
2022-11-04T21:57:32.929Z,75.73
2022-11-04T22:00:16.511Z,75.40
2022-11-04T22:02:59.880Z,75.46
2022-11-04T22:05:42.840Z,75.59
2022-11-04T22:08:25.876Z,75.27
2022-11-04T22:11:12.341Z,74.96
2022-11-04T22:13:56.924Z,74.67
2022-11-04T22:16:40.837Z,75.01
2022-11-04T22:19:23.695Z,74.97
2022-11-04T22:22:06.617Z,75.19
2022-11-04T22:25:03.074Z,75.36
2022-11-04T22:27:47.358Z,75.08
2022-11-04T22:30:30.300Z,75.19
2022-11-04T22:33:13.378Z,75.15
2022-11-04T22:35:56.502Z,75.24
2022-11-04T22:38:40.584Z,75.35
2022-11-04T22:41:25.516Z,75.15
2022-11-04T22:44:09.866Z,74.98
2022-11-04T22:46:52.766Z,75.10
2022-11-04T22:49:35.795Z,75.07
2022-11-04T22:52:18.684Z,75.12
2022-11-04T22:55:01.595Z,75.29
2022-11-04T22:57:45.397Z,75.14
2022-11-04T23:00:29.702Z,75.23
2022-11-04T23:03:12.940Z,75.29
2022-11-04T23:05:57.379Z,75.55
2022-11-04T23:08:42.353Z,75.31
2022-11-04T23:11:45.477Z,75.35
2022-11-04T23:14:45.676Z,75.21
2022-11-04T23:18:01.886Z,75.01
2022-11-04T23:21:04.783Z,75.18
2022-11-04T23:24:05.155Z,75.19
2022-11-04T23:26:48.552Z,74.96
2022-11-04T23:29:49.176Z,74.79
2022-11-04T23:32:33.442Z,75.18
2022-11-04T23:35:34.017Z,75.45
2022-11-04T23:38:17.433Z,75.68
2022-11-04T23:41:20.479Z,75.43
2022-11-04T23:44:03.389Z,75.05
2022-11-04T23:47:03.760Z,74.89
2022-11-04T23:50:05.480Z,75.22
2022-11-04T23:53:05.631Z,75.18
2022-11-04T23:56:06.499Z,75.19
2022-11-04T23:59:06.800Z,75.61
